Time;durP1;ratioP1;P1;durP2;ratioP2;P2;SDS_P1;SDS_P2;PMS_P1;PMS_P2;Temp;Humidity;BMP_temperature;BMP_pressure;BME280_temperature;BME280_humidity;BME280_pressure;Samples;Min_cycle;Max_cycle;Signal;HPM_P1;HPM_P2
2023/08/10 00:00:52;;;;;;;1.50;1.40;;;;;;;;;;4896105;28;20488;-68
2023/08/10 00:03:18;;;;;;;1.10;1.10;;;;;;;;;;4896432;28;20521;-67
2023/08/10 00:05:44;;;;;;;1.67;1.67;;;;;;;;;;4896610;29;20430;-67
2023/08/10 00:08:10;;;;;;;3.73;1.67;;;;;;;;;;4896549;29;20929;-68
2023/08/10 00:10:37;;;;;;;3.70;1.93;;;;;;;;;;4896340;28;20449;-67
2023/08/10 00:13:03;;;;;;;1.90;1.57;;;;;;;;;;4896188;28;20469;-68
2023/08/10 00:15:29;;;;;;;4.03;1.70;;;;;;;;;;4896481;28;20434;-67
2023/08/10 00:17:55;;;;;;;5.90;1.67;;;;;;;;;;4895855;28;20824;-68
2023/08/10 00:20:21;;;;;;;1.60;1.60;;;;;;;;;;4896420;28;20442;-69
2023/08/10 00:22:47;;;;;;;2.03;1.87;;;;;;;;;;4895898;28;20504;-70
2023/08/10 00:25:13;;;;;;;1.40;1.37;;;;;;;;;;4896108;28;20442;-71
2023/08/10 00:27:39;;;;;;;1.83;1.83;;;;;;;;;;4896584;28;20425;-69
2023/08/10 00:30:09;;;;;;;2.10;2.10;;;;;;;;;;4895876;28;20543;-70
2023/08/10 00:32:35;;;;;;;2.53;2.30;;;;;;;;;;4895598;29;20457;-69
2023/08/10 00:35:02;;;;;;;1.97;1.97;;;;;;;;;;4896035;28;20448;-68
2023/08/10 00:37:28;;;;;;;2.70;2.50;;;;;;;;;;4894950;29;20554;-67
2023/08/10 00:39:54;;;;;;;2.33;2.27;;;;;;;;;;4896277;28;20457;-68
2023/08/10 00:42:21;;;;;;;2.30;2.20;;;;;;;;;;4896042;28;20407;-67
2023/08/10 00:44:47;;;;;;;2.47;2.27;;;;;;;;;;4895891;28;20441;-67
2023/08/10 00:47:14;;;;;;;2.20;2.20;;;;;;;;;;4895753;28;20434;-67
2023/08/10 00:49:40;;;;;;;2.03;2.03;;;;;;;;;;4895989;28;20528;-68
2023/08/10 00:52:06;;;;;;;2.13;2.03;;;;;;;;;;4896264;28;20422;-67
2023/08/10 00:54:32;;;;;;;2.60;2.40;;;;;;;;;;4895186;28;20930;-68
2023/08/10 00:56:59;;;;;;;2.00;1.90;;;;;;;;;;4894777;29;20442;-67
2023/08/10 00:59:25;;;;;;;2.10;2.00;;;;;;;;;;4895837;29;20442;-67
2023/08/10 01:01:52;;;;;;;1.60;1.50;;;;;;;;;;4895184;28;20434;-69
2023/08/10 01:04:17;;;;;;;2.07;1.97;;;;;;;;;;4895622;29;20922;-69
2023/08/10 01:06:56;;;;;;;7.93;1.30;;;;;;;;;;4895756;29;20433;-67
2023/08/10 01:09:52;;;;;;;2.53;1.80;;;;;;;;;;4895718;28;20993;-68
2023/08/10 01:12:23;;;;;;;3.80;1.57;;;;;;;;;;4891125;28;20438;-67
2023/08/10 01:14:52;;;;;;;1.10;1.10;;;;;;;;;;4895185;28;20500;-67
2023/08/10 01:17:21;;;;;;;1.20;1.20;;;;;;;;;;4894973;28;21004;-68
2023/08/10 01:19:47;;;;;;;3.07;1.87;;;;;;;;;;4894483;28;20440;-70
2023/08/10 01:22:28;;;;;;;1.97;1.87;;;;;;;;;;4895573;28;20442;-66
2023/08/10 01:25:05;;;;;;;1.30;1.30;;;;;;;;;;4893994;29;20468;-67
2023/08/10 01:27:32;;;;;;;2.87;1.67;;;;;;;;;;4895374;28;20808;-68
2023/08/10 01:30:00;;;;;;;2.73;1.60;;;;;;;;;;4895524;28;20488;-68
2023/08/10 01:32:27;;;;;;;3.13;1.60;;;;;;;;;;4895028;28;20422;-68
2023/08/10 01:34:54;;;;;;;4.30;1.63;;;;;;;;;;4895450;28;20422;-69
2023/08/10 01:37:20;;;;;;;1.70;1.70;;;;;;;;;;4895632;29;20418;-70
2023/08/10 01:39:46;;;;;;;1.10;1.10;;;;;;;;;;4895422;28;20545;-69
2023/08/10 01:42:12;;;;;;;1.57;1.43;;;;;;;;;;4895429;29;20434;-68
2023/08/10 01:44:38;;;;;;;1.60;1.50;;;;;;;;;;4894926;29;20505;-69
2023/08/10 01:47:05;;;;;;;1.60;1.50;;;;;;;;;;4895011;28;20529;-67
2023/08/10 01:49:34;;;;;;;2.20;1.30;;;;;;;;;;4895020;28;20849;-67
2023/08/10 01:52:02;;;;;;;2.07;1.90;;;;;;;;;;4895275;29;20871;-67
2023/08/10 01:54:29;;;;;;;2.23;2.07;;;;;;;;;;4893651;28;20477;-67
2023/08/10 01:56:55;;;;;;;5.40;1.73;;;;;;;;;;4895053;29;20484;-68
2023/08/10 01:59:21;;;;;;;3.37;1.73;;;;;;;;;;4894693;28;20433;-66
2023/08/10 02:01:47;;;;;;;1.90;1.90;;;;;;;;;;4894358;28;20460;-68
2023/08/10 02:04:13;;;;;;;5.03;1.77;;;;;;;;;;4894708;28;20422;-67
2023/08/10 02:06:40;;;;;;;1.47;1.47;;;;;;;;;;4895040;29;20629;-68
2023/08/10 02:09:06;;;;;;;7.50;2.17;;;;;;;;;;4894859;28;21044;-67
2023/08/10 02:11:32;;;;;;;2.20;2.10;;;;;;;;;;4894886;28;20844;-68
2023/08/10 02:13:59;;;;;;;2.07;1.53;;;;;;;;;;4894431;28;20478;-67
2023/08/10 02:16:25;;;;;;;1.40;1.40;;;;;;;;;;4894772;28;20531;-67
2023/08/10 02:18:51;;;;;;;1.80;1.27;;;;;;;;;;4894620;28;20518;-68
2023/08/10 02:21:17;;;;;;;2.20;1.60;;;;;;;;;;4894782;28;20442;-67
2023/08/10 02:23:44;;;;;;;1.43;1.43;;;;;;;;;;4894347;28;20438;-68
2023/08/10 02:26:09;;;;;;;1.70;1.37;;;;;;;;;;4894714;29;20433;-69
2023/08/10 02:28:35;;;;;;;2.13;2.03;;;;;;;;;;4894804;28;20473;-68
2023/08/10 02:31:04;;;;;;;1.73;1.63;;;;;;;;;;4894467;28;20453;-67
2023/08/10 02:33:30;;;;;;;2.40;1.30;;;;;;;;;;4894003;28;20926;-67
2023/08/10 02:35:56;;;;;;;8.43;1.87;;;;;;;;;;4893704;28;20533;-68
2023/08/10 02:38:22;;;;;;;5.80;1.73;;;;;;;;;;4877818;28;20441;-66
2023/08/10 02:40:48;;;;;;;3.40;1.63;;;;;;;;;;4893311;28;20922;-68
2023/08/10 02:43:14;;;;;;;2.40;2.20;;;;;;;;;;4893980;28;20449;-67
2023/08/10 02:45:39;;;;;;;1.97;1.97;;;;;;;;;;4894095;28;20442;-66
2023/08/10 02:48:06;;;;;;;6.43;1.67;;;;;;;;;;4893438;28;20492;-69
2023/08/10 02:50:32;;;;;;;3.53;2.40;;;;;;;;;;4893122;29;20493;-69
2023/08/10 02:52:58;;;;;;;2.50;1.80;;;;;;;;;;4894196;28;21009;-68
2023/08/10 02:55:24;;;;;;;4.37;2.60;;;;;;;;;;4893149;28;20437;-67
2023/08/10 02:57:50;;;;;;;8.60;1.97;;;;;;;;;;4882796;29;20580;-67
2023/08/10 03:00:17;;;;;;;1.70;1.70;;;;;;;;;;4893839;29;20434;-67
2023/08/10 03:02:43;;;;;;;7.63;2.03;;;;;;;;;;4893992;28;20430;-67
2023/08/10 03:05:09;;;;;;;1.90;1.80;;;;;;;;;;4894254;29;20438;-67
2023/08/10 03:07:36;;;;;;;1.77;1.67;;;;;;;;;;4897003;28;20522;-67
2023/08/10 03:10:02;;;;;;;1.67;1.57;;;;;;;;;;4897474;28;20496;-67
2023/08/10 03:12:28;;;;;;;2.43;1.80;;;;;;;;;;4895886;29;20524;-67
2023/08/10 03:14:54;;;;;;;13.07;3.33;;;;;;;;;;4897285;28;20465;-69
2023/08/10 03:17:20;;;;;;;1.80;1.80;;;;;;;;;;4896651;28;20880;-67
2023/08/10 03:19:46;;;;;;;3.20;1.37;;;;;;;;;;4897355;28;20535;-68
2023/08/10 03:22:12;;;;;;;1.30;1.30;;;;;;;;;;4897368;29;20443;-67
2023/08/10 03:24:38;;;;;;;3.33;1.70;;;;;;;;;;4896918;28;20807;-69
2023/08/10 03:27:04;;;;;;;1.77;1.77;;;;;;;;;;4897297;29;20962;-67
2023/08/10 03:29:30;;;;;;;1.53;1.50;;;;;;;;;;4897098;28;20477;-67
2023/08/10 03:31:56;;;;;;;1.87;1.77;;;;;;;;;;4896669;28;20442;-67
2023/08/10 03:34:22;;;;;;;1.50;1.40;;;;;;;;;;4896371;28;20845;-68
2023/08/10 03:36:48;;;;;;;1.60;1.60;;;;;;;;;;4897218;29;20440;-67
2023/08/10 03:39:14;;;;;;;1.10;1.10;;;;;;;;;;4887593;28;20434;-68
2023/08/10 03:41:40;;;;;;;4.53;1.40;;;;;;;;;;4896893;28;20817;-68
2023/08/10 03:44:06;;;;;;;4.73;1.77;;;;;;;;;;4896630;29;20514;-67
2023/08/10 03:46:32;;;;;;;1.80;1.70;;;;;;;;;;4896174;29;20434;-66
2023/08/10 03:48:58;;;;;;;2.40;2.30;;;;;;;;;;4896977;28;20492;-67
2023/08/10 03:51:24;;;;;;;3.80;1.30;;;;;;;;;;4897159;29;20422;-68
2023/08/10 03:53:50;;;;;;;11.00;1.70;;;;;;;;;;4896573;28;20417;-67
2023/08/10 03:56:17;;;;;;;2.27;2.10;;;;;;;;;;4897005;28;20417;-67
2023/08/10 03:58:43;;;;;;;2.87;1.43;;;;;;;;;;4897101;28;20418;-66
2023/08/10 04:01:09;;;;;;;4.00;1.77;;;;;;;;;;4896500;28;20791;-67
2023/08/10 04:03:35;;;;;;;1.80;1.80;;;;;;;;;;4895369;28;20434;-68
2023/08/10 04:06:01;;;;;;;2.47;1.70;;;;;;;;;;4896771;28;20422;-67
2023/08/10 04:08:27;;;;;;;2.30;1.50;;;;;;;;;;4896831;29;20428;-67
2023/08/10 04:10:53;;;;;;;2.63;1.90;;;;;;;;;;4895626;28;20577;-68
2023/08/10 04:13:19;;;;;;;3.03;1.80;;;;;;;;;;4896481;29;20898;-68
2023/08/10 04:15:45;;;;;;;2.40;2.20;;;;;;;;;;4896428;28;20441;-68
2023/08/10 04:18:11;;;;;;;3.60;1.63;;;;;;;;;;4895955;28;20835;-67
2023/08/10 04:20:37;;;;;;;2.70;1.80;;;;;;;;;;4896696;29;20430;-67
2023/08/10 04:23:03;;;;;;;2.73;2.13;;;;;;;;;;4895163;28;20437;-67
2023/08/10 04:25:29;;;;;;;1.50;1.50;;;;;;;;;;4896646;28;20516;-67
2023/08/10 04:27:55;;;;;;;1.80;1.80;;;;;;;;;;4896560;29;20529;-66
2023/08/10 04:30:22;;;;;;;1.60;1.40;;;;;;;;;;4896059;28;20485;-67
2023/08/10 04:32:48;;;;;;;2.13;1.87;;;;;;;;;;4896189;28;20422;-68
2023/08/10 04:35:14;;;;;;;1.80;1.70;;;;;;;;;;4896488;28;20426;-68
2023/08/10 04:37:40;;;;;;;1.93;1.83;;;;;;;;;;4896387;28;20417;-67
2023/08/10 04:40:09;;;;;;;2.53;1.70;;;;;;;;;;4896420;29;20418;-67
2023/08/10 04:42:38;;;;;;;2.23;2.10;;;;;;;;;;4895891;28;20425;-68
2023/08/10 04:45:04;;;;;;;9.77;2.27;;;;;;;;;;4896020;28;20476;-67
2023/08/10 04:47:30;;;;;;;4.10;2.00;;;;;;;;;;4896275;28;20422;-67
2023/08/10 04:49:56;;;;;;;5.03;2.90;;;;;;;;;;4896246;28;20504;-68
2023/08/10 04:52:22;;;;;;;3.77;2.37;;;;;;;;;;4895854;28;20414;-67
2023/08/10 04:54:48;;;;;;;1.93;1.83;;;;;;;;;;4896179;29;20480;-69
2023/08/10 04:57:15;;;;;;;6.73;2.37;;;;;;;;;;4896143;28;20549;-67
2023/08/10 04:59:41;;;;;;;1.73;1.63;;;;;;;;;;4896191;28;20513;-69
2023/08/10 05:02:08;;;;;;;1.90;1.80;;;;;;;;;;4895673;28;20460;-66
2023/08/10 05:04:34;;;;;;;6.50;2.40;;;;;;;;;;4895102;28;20429;-66
2023/08/10 05:07:01;;;;;;;5.07;2.33;;;;;;;;;;4895813;28;20457;-66
2023/08/10 05:09:27;;;;;;;2.57;1.90;;;;;;;;;;4895892;29;20523;-66
2023/08/10 05:11:53;;;;;;;1.90;1.80;;;;;;;;;;4895840;28;20449;-66
2023/08/10 05:14:19;;;;;;;1.53;1.53;;;;;;;;;;4895300;29;20444;-67
2023/08/10 05:16:45;;;;;;;3.20;1.80;;;;;;;;;;4895293;29;20430;-66
2023/08/10 05:19:11;;;;;;;1.50;1.50;;;;;;;;;;4910345;29;20562;-67
2023/08/10 05:21:37;;;;;;;6.53;1.70;;;;;;;;;;4895773;28;20457;-67
2023/08/10 05:24:03;;;;;;;4.30;2.40;;;;;;;;;;4895464;28;20434;-68
2023/08/10 05:26:29;;;;;;;1.50;1.40;;;;;;;;;;4895758;29;20425;-67
2023/08/10 05:28:55;;;;;;;3.00;1.60;;;;;;;;;;4894708;29;20465;-66
2023/08/10 05:31:21;;;;;;;2.20;1.40;;;;;;;;;;4894994;28;20536;-66
2023/08/10 05:33:47;;;;;;;1.20;1.20;;;;;;;;;;4895323;28;20914;-66
2023/08/10 05:36:13;;;;;;;3.03;1.43;;;;;;;;;;4895417;28;20422;-67
2023/08/10 05:38:39;;;;;;;1.90;1.80;;;;;;;;;;4890160;28;20802;-67
2023/08/10 05:41:05;;;;;;;1.33;1.33;;;;;;;;;;4895273;29;20432;-66
2023/08/10 05:43:31;;;;;;;1.90;1.80;;;;;;;;;;4894649;28;20432;-67
2023/08/10 05:45:57;;;;;;;1.50;1.50;;;;;;;;;;4894502;29;20529;-66
2023/08/10 05:48:23;;;;;;;1.70;1.70;;;;;;;;;;4895025;29;20529;-66
2023/08/10 05:50:49;;;;;;;1.67;1.63;;;;;;;;;;4895013;28;20473;-66
2023/08/10 05:53:15;;;;;;;2.83;1.53;;;;;;;;;;4894627;29;20512;-66
2023/08/10 05:55:42;;;;;;;1.77;1.67;;;;;;;;;;4895184;28;20529;-66
2023/08/10 05:58:08;;;;;;;2.10;2.10;;;;;;;;;;4894991;28;20557;-71
2023/08/10 06:00:36;;;;;;;1.60;1.50;;;;;;;;;;4894525;28;20933;-69
2023/08/10 06:03:02;;;;;;;15.90;1.90;;;;;;;;;;4894632;28;20418;-68
2023/08/10 06:05:31;;;;;;;7.17;2.10;;;;;;;;;;4894796;28;20529;-68
2023/08/10 06:07:57;;;;;;;1.60;1.60;;;;;;;;;;4894507;28;20438;-67
2023/08/10 06:10:23;;;;;;;7.20;1.70;;;;;;;;;;4894568;29;20540;-67
2023/08/10 06:12:49;;;;;;;2.93;1.50;;;;;;;;;;4892979;28;20516;-67
2023/08/10 06:15:15;;;;;;;1.70;1.60;;;;;;;;;;4893164;28;20528;-68
2023/08/10 06:17:41;;;;;;;14.50;2.30;;;;;;;;;;4893894;28;20544;-68
2023/08/10 06:20:13;;;;;;;3.20;2.90;;;;;;;;;;4894582;28;20430;-67
2023/08/10 06:22:39;;;;;;;1.60;1.50;;;;;;;;;;4894455;29;20433;-68
2023/08/10 06:25:05;;;;;;;1.80;1.70;;;;;;;;;;4894995;28;20434;-68
2023/08/10 06:27:32;;;;;;;2.00;1.40;;;;;;;;;;4894436;28;20425;-68
2023/08/10 06:29:58;;;;;;;7.97;1.90;;;;;;;;;;4894484;28;21060;-69
2023/08/10 06:32:25;;;;;;;1.90;1.80;;;;;;;;;;4889969;28;20475;-68
2023/08/10 06:34:51;;;;;;;1.27;1.27;;;;;;;;;;4893987;29;20434;-67
2023/08/10 06:37:17;;;;;;;1.43;1.43;;;;;;;;;;4894690;28;20413;-67
2023/08/10 06:39:43;;;;;;;1.33;1.23;;;;;;;;;;4894443;28;20789;-67
2023/08/10 06:42:09;;;;;;;0.90;0.90;;;;;;;;;;4896924;28;20434;-69
2023/08/10 06:44:35;;;;;;;1.53;1.53;;;;;;;;;;4896856;28;20988;-66
2023/08/10 06:47:02;;;;;;;1.60;1.50;;;;;;;;;;4897200;29;20441;-69
2023/08/10 06:49:28;;;;;;;9.63;5.90;;;;;;;;;;4897193;28;20523;-67
2023/08/10 06:51:54;;;;;;;1.80;1.80;;;;;;;;;;4897883;28;20425;-67
2023/08/10 06:54:20;;;;;;;1.57;1.47;;;;;;;;;;4896654;29;20429;-67
2023/08/10 06:56:46;;;;;;;1.43;1.43;;;;;;;;;;4892896;29;20437;-67
2023/08/10 06:59:13;;;;;;;2.07;1.20;;;;;;;;;;4895389;28;20981;-68
2023/08/10 07:01:39;;;;;;;1.10;1.10;;;;;;;;;;4897166;28;20790;-69
2023/08/10 07:04:05;;;;;;;4.63;1.50;;;;;;;;;;4897216;28;20422;-67
2023/08/10 07:06:31;;;;;;;2.67;1.47;;;;;;;;;;4897441;28;20429;-67
2023/08/10 07:08:57;;;;;;;2.00;1.37;;;;;;;;;;4896721;28;20996;-67
2023/08/10 07:11:23;;;;;;;1.57;1.57;;;;;;;;;;4897611;28;20460;-67
2023/08/10 07:13:49;;;;;;;4.00;1.20;;;;;;;;;;4895807;28;20508;-69
2023/08/10 07:16:16;;;;;;;1.60;1.60;;;;;;;;;;4895771;29;20469;-68
2023/08/10 07:18:42;;;;;;;1.30;1.30;;;;;;;;;;4896815;29;20485;-68
2023/08/10 07:21:08;;;;;;;1.80;1.80;;;;;;;;;;4897006;28;20472;-69
2023/08/10 07:23:34;;;;;;;1.90;1.83;;;;;;;;;;4896940;28;20449;-67
2023/08/10 07:26:00;;;;;;;1.70;1.60;;;;;;;;;;4896645;28;20928;-67
2023/08/10 07:28:26;;;;;;;2.10;2.00;;;;;;;;;;4895539;28;20469;-68
2023/08/10 07:30:53;;;;;;;1.40;1.40;;;;;;;;;;4896874;29;20483;-66
2023/08/10 07:33:19;;;;;;;3.27;1.70;;;;;;;;;;4896822;29;20418;-68
2023/08/10 07:35:45;;;;;;;1.53;1.53;;;;;;;;;;4897282;28;20432;-63
2023/08/10 07:38:12;;;;;;;1.50;1.40;;;;;;;;;;4897359;29;20469;-67
2023/08/10 07:40:38;;;;;;;1.90;1.83;;;;;;;;;;4896840;29;20438;-68
2023/08/10 07:43:04;;;;;;;1.80;1.80;;;;;;;;;;4896805;28;21005;-67
2023/08/10 07:45:30;;;;;;;2.10;2.00;;;;;;;;;;4896055;28;20441;-67
2023/08/10 07:47:56;;;;;;;3.23;1.80;;;;;;;;;;4897131;28;20509;-67
2023/08/10 07:50:22;;;;;;;1.63;1.60;;;;;;;;;;4896773;28;20854;-67
2023/08/10 07:52:48;;;;;;;4.73;2.30;;;;;;;;;;4895966;28;20476;-67
2023/08/10 07:55:15;;;;;;;1.90;1.90;;;;;;;;;;4897073;28;20834;-67
2023/08/10 07:57:41;;;;;;;1.40;1.40;;;;;;;;;;4896999;28;20424;-67
2023/08/10 08:00:10;;;;;;;1.63;1.50;;;;;;;;;;4896492;28;20520;-67
2023/08/10 08:02:36;;;;;;;1.33;1.33;;;;;;;;;;4896663;28;21011;-67
2023/08/10 08:05:02;;;;;;;1.47;1.37;;;;;;;;;;4896952;28;20521;-67
2023/08/10 08:07:30;;;;;;;2.00;2.00;;;;;;;;;;4896824;28;20902;-67
2023/08/10 08:09:57;;;;;;;2.10;1.60;;;;;;;;;;4896819;28;20517;-67
2023/08/10 08:12:23;;;;;;;2.03;1.90;;;;;;;;;;4896489;28;20418;-67
2023/08/10 08:14:49;;;;;;;1.10;1.10;;;;;;;;;;4895025;28;20445;-67
2023/08/10 08:17:15;;;;;;;1.60;1.60;;;;;;;;;;4896231;28;20422;-67
2023/08/10 08:19:41;;;;;;;1.60;1.50;;;;;;;;;;4896455;28;20490;-68
2023/08/10 08:22:07;;;;;;;1.70;1.70;;;;;;;;;;4896562;29;20422;-71
2023/08/10 08:24:33;;;;;;;6.53;1.60;;;;;;;;;;4896300;28;20444;-67
2023/08/10 08:26:59;;;;;;;1.13;1.13;;;;;;;;;;4896552;28;20818;-67
2023/08/10 08:29:25;;;;;;;6.67;1.60;;;;;;;;;;4895672;28;20523;-67
2023/08/10 08:31:51;;;;;;;1.67;1.57;;;;;;;;;;4896059;28;21274;-67
2023/08/10 08:34:17;;;;;;;1.40;1.40;;;;;;;;;;4895654;29;20430;-66
2023/08/10 08:36:44;;;;;;;1.30;1.30;;;;;;;;;;4896394;28;20847;-67
2023/08/10 08:39:10;;;;;;;2.30;1.47;;;;;;;;;;4896313;29;20418;-67
2023/08/10 08:41:37;;;;;;;3.27;1.60;;;;;;;;;;4895483;28;21791;-68
2023/08/10 08:44:07;;;;;;;1.67;1.67;;;;;;;;;;4895804;29;20477;-68
2023/08/10 08:46:33;;;;;;;1.60;1.50;;;;;;;;;;4896099;28;20536;-69
2023/08/10 08:49:01;;;;;;;1.50;1.40;;;;;;;;;;4896242;29;21041;-68
2023/08/10 08:51:27;;;;;;;2.03;1.37;;;;;;;;;;4896270;28;20453;-67
2023/08/10 08:53:53;;;;;;;1.70;1.60;;;;;;;;;;4895808;29;20422;-67
2023/08/10 08:56:19;;;;;;;2.97;1.40;;;;;;;;;;4895903;29;20512;-67
2023/08/10 08:58:45;;;;;;;3.30;1.30;;;;;;;;;;4895365;28;20492;-67
2023/08/10 09:01:13;;;;;;;4.43;1.00;;;;;;;;;;4894906;29;20533;-67
2023/08/10 09:03:39;;;;;;;1.37;1.27;;;;;;;;;;4894946;28;20438;-67
2023/08/10 09:06:05;;;;;;;5.93;1.37;;;;;;;;;;4895428;28;20455;-67
2023/08/10 09:08:31;;;;;;;2.30;2.20;;;;;;;;;;4895075;29;20434;-67
2023/08/10 09:10:57;;;;;;;1.40;1.30;;;;;;;;;;4895437;29;20438;-67
2023/08/10 09:13:23;;;;;;;1.40;1.40;;;;;;;;;;4894761;29;20444;-67
2023/08/10 09:16:13;;;;;;;1.50;1.50;;;;;;;;;;4895507;28;20426;-67
2023/08/10 09:18:39;;;;;;;1.20;1.20;;;;;;;;;;4895560;28;20568;-67
2023/08/10 09:21:12;;;;;;;1.20;1.20;;;;;;;;;;4895841;29;20426;-67
2023/08/10 09:23:38;;;;;;;1.40;1.20;;;;;;;;;;4895511;28;20457;-67
2023/08/10 09:26:08;;;;;;;0.97;0.97;;;;;;;;;;4895222;28;20469;-67
2023/08/10 09:28:37;;;;;;;1.83;1.73;;;;;;;;;;4895362;28;20922;-67
2023/08/10 09:31:03;;;;;;;2.20;1.30;;;;;;;;;;4895220;29;20442;-68
2023/08/10 09:33:31;;;;;;;1.13;1.03;;;;;;;;;;4895320;29;20468;-67
2023/08/10 09:36:00;;;;;;;2.43;1.60;;;;;;;;;;4895460;28;20473;-68
2023/08/10 09:38:26;;;;;;;1.00;1.00;;;;;;;;;;4895579;29;20449;-67
2023/08/10 09:41:11;;;;;;;3.80;1.23;;;;;;;;;;4895641;28;20464;-68
2023/08/10 09:43:38;;;;;;;1.30;1.30;;;;;;;;;;4895167;28;20964;-67
2023/08/10 09:46:09;;;;;;;0.90;0.90;;;;;;;;;;4894864;28;20488;-67
2023/08/10 09:48:36;;;;;;;1.10;1.10;;;;;;;;;;4895080;28;20441;-67
2023/08/10 09:51:03;;;;;;;4.00;1.27;;;;;;;;;;4895528;29;20941;-67
2023/08/10 09:53:29;;;;;;;1.10;1.10;;;;;;;;;;4895016;28;20509;-69
2023/08/10 09:55:56;;;;;;;1.03;1.03;;;;;;;;;;4894861;28;20843;-67
2023/08/10 09:58:22;;;;;;;1.20;1.20;;;;;;;;;;4895133;28;20880;-67
2023/08/10 10:00:49;;;;;;;6.00;1.23;;;;;;;;;;4894933;28;20426;-67
2023/08/10 10:03:16;;;;;;;0.70;0.70;;;;;;;;;;4894905;28;20738;-67
2023/08/10 10:05:42;;;;;;;1.37;1.27;;;;;;;;;;4895245;29;20433;-67
2023/08/10 10:08:08;;;;;;;8.43;1.30;;;;;;;;;;4895283;28;20886;-67
2023/08/10 10:10:35;;;;;;;3.17;1.63;;;;;;;;;;4895120;28;20492;-69
2023/08/10 10:13:03;;;;;;;1.50;1.50;;;;;;;;;;4894269;28;20449;-67
2023/08/10 10:15:30;;;;;;;1.77;1.50;;;;;;;;;;4897815;28;20445;-67
2023/08/10 10:17:56;;;;;;;1.03;1.03;;;;;;;;;;4901163;28;20473;-68
2023/08/10 10:20:22;;;;;;;1.00;1.00;;;;;;;;;;4899230;28;20445;-67
2023/08/10 10:22:49;;;;;;;1.03;1.03;;;;;;;;;;4898485;28;20934;-70
2023/08/10 10:25:15;;;;;;;1.03;1.03;;;;;;;;;;4899247;28;21004;-67
2023/08/10 10:27:46;;;;;;;0.90;0.90;;;;;;;;;;4900340;29;20548;-67
2023/08/10 10:30:16;;;;;;;1.13;1.13;;;;;;;;;;4898287;28;20863;-71
2023/08/10 10:32:46;;;;;;;5.30;1.40;;;;;;;;;;4899736;28;20441;-67
2023/08/10 10:35:15;;;;;;;2.30;1.03;;;;;;;;;;4900947;28;20428;-67
2023/08/10 10:37:41;;;;;;;1.30;1.30;;;;;;;;;;4901125;28;20429;-67
2023/08/10 10:40:18;;;;;;;1.77;1.30;;;;;;;;;;4901023;29;20429;-66
2023/08/10 10:43:02;;;;;;;1.00;1.00;;;;;;;;;;4881907;28;20430;-66
2023/08/10 10:45:28;;;;;;;2.53;1.60;;;;;;;;;;4881482;28;20469;-66
2023/08/10 10:47:55;;;;;;;1.00;1.00;;;;;;;;;;4882377;28;20478;-67
2023/08/10 10:50:24;;;;;;;2.47;1.23;;;;;;;;;;4882239;29;20522;-66
2023/08/10 10:53:00;;;;;;;5.60;1.80;;;;;;;;;;4881825;28;20810;-66
2023/08/10 10:55:27;;;;;;;1.40;1.40;;;;;;;;;;4882168;28;20458;-67
2023/08/10 10:57:54;;;;;;;1.10;1.10;;;;;;;;;;4882257;29;20462;-67
2023/08/10 11:00:21;;;;;;;8.30;1.53;;;;;;;;;;4881770;29;20418;-66
2023/08/10 11:02:47;;;;;;;1.47;1.47;;;;;;;;;;4881722;29;20454;-67
2023/08/10 11:05:14;;;;;;;1.33;1.33;;;;;;;;;;4882203;29;20496;-66
2023/08/10 11:08:03;;;;;;;1.20;1.20;;;;;;;;;;4882057;28;20414;-66
2023/08/10 11:10:31;;;;;;;1.90;1.40;;;;;;;;;;4882003;28;20488;-66
2023/08/10 11:12:57;;;;;;;1.30;1.30;;;;;;;;;;4881643;29;20442;-66
2023/08/10 11:15:23;;;;;;;1.10;1.10;;;;;;;;;;4881685;29;20581;-67
2023/08/10 11:17:52;;;;;;;1.53;1.53;;;;;;;;;;4881820;28;21021;-66
2023/08/10 11:20:18;;;;;;;1.10;1.10;;;;;;;;;;4881927;29;20426;-66
2023/08/10 11:22:45;;;;;;;1.40;1.40;;;;;;;;;;4881603;28;20438;-67
2023/08/10 11:25:16;;;;;;;1.50;1.50;;;;;;;;;;4881704;29;20867;-67
2023/08/10 11:27:43;;;;;;;1.17;1.17;;;;;;;;;;4877079;29;20418;-67
2023/08/10 11:30:11;;;;;;;2.00;1.40;;;;;;;;;;4878400;28;21058;-66
2023/08/10 11:32:40;;;;;;;2.43;2.03;;;;;;;;;;4877168;28;20573;-66
2023/08/10 11:35:07;;;;;;;1.43;1.43;;;;;;;;;;4878555;28;20550;-66
2023/08/10 11:37:35;;;;;;;1.70;1.70;;;;;;;;;;4878665;28;20426;-66
2023/08/10 11:40:10;;;;;;;8.20;1.20;;;;;;;;;;4878594;29;20430;-66
2023/08/10 11:42:36;;;;;;;1.37;1.37;;;;;;;;;;4878233;29;20532;-66
2023/08/10 11:45:16;;;;;;;2.00;2.00;;;;;;;;;;4878160;28;20530;-66
2023/08/10 11:47:43;;;;;;;1.57;1.57;;;;;;;;;;4878565;28;20427;-66
2023/08/10 11:50:10;;;;;;;0.97;0.97;;;;;;;;;;4878383;29;21088;-66
2023/08/10 11:52:37;;;;;;;1.30;1.30;;;;;;;;;;4878057;29;20415;-66
2023/08/10 11:55:12;;;;;;;1.23;1.23;;;;;;;;;;4878435;28;20442;-66
2023/08/10 11:57:39;;;;;;;1.10;1.00;;;;;;;;;;4878351;28;20485;-66
2023/08/10 12:00:33;;;;;;;1.20;1.20;;;;;;;;;;4878104;29;20446;-66
2023/08/10 12:03:07;;;;;;;1.60;1.60;;;;;;;;;;4880066;29;20430;-66
2023/08/10 12:05:39;;;;;;;1.23;1.13;;;;;;;;;;4878232;28;20941;-66
2023/08/10 12:08:09;;;;;;;1.70;1.70;;;;;;;;;;4878275;28;20423;-66
2023/08/10 12:10:36;;;;;;;5.70;1.30;;;;;;;;;;4878226;28;20486;-66
2023/08/10 12:13:03;;;;;;;1.33;1.33;;;;;;;;;;4877824;28;20422;-66
2023/08/10 12:15:31;;;;;;;2.33;1.10;;;;;;;;;;4877766;28;20435;-66
2023/08/10 12:17:57;;;;;;;1.20;1.20;;;;;;;;;;4877881;29;20549;-66
2023/08/10 12:20:23;;;;;;;5.73;1.33;;;;;;;;;;4878057;28;20422;-66
2023/08/10 12:22:49;;;;;;;1.13;1.13;;;;;;;;;;4877770;29;20423;-66
2023/08/10 12:25:15;;;;;;;1.57;1.57;;;;;;;;;;4876767;29;20461;-66
2023/08/10 12:27:41;;;;;;;1.60;1.13;;;;;;;;;;4878029;29;20455;-66
2023/08/10 12:30:09;;;;;;;1.60;1.50;;;;;;;;;;4877555;29;20498;-66
2023/08/10 12:32:35;;;;;;;2.47;2.37;;;;;;;;;;4877606;29;20509;-66
2023/08/10 12:35:01;;;;;;;0.90;0.90;;;;;;;;;;4889311;28;20540;-67
2023/08/10 12:37:27;;;;;;;1.30;1.30;;;;;;;;;;4890663;28;20951;-68
2023/08/10 12:39:54;;;;;;;1.27;1.27;;;;;;;;;;4890593;28;20493;-68
2023/08/10 12:42:20;;;;;;;1.33;1.33;;;;;;;;;;4895337;29;20980;-66
2023/08/10 12:44:46;;;;;;;1.57;1.57;;;;;;;;;;4895974;28;20425;-68
2023/08/10 12:47:12;;;;;;;1.90;1.90;;;;;;;;;;4895717;28;20438;-71
2023/08/10 12:49:38;;;;;;;1.40;1.40;;;;;;;;;;4896019;28;21000;-68
2023/08/10 12:52:04;;;;;;;2.30;1.40;;;;;;;;;;4895865;28;20414;-68
2023/08/10 12:54:30;;;;;;;4.73;1.53;;;;;;;;;;4895676;29;20483;-69
2023/08/10 12:56:56;;;;;;;1.43;1.43;;;;;;;;;;4904734;28;20432;-67
2023/08/10 12:59:22;;;;;;;1.87;1.87;;;;;;;;;;4907835;29;20437;-67
2023/08/10 13:01:51;;;;;;;1.93;1.80;;;;;;;;;;4895087;28;20437;-67
2023/08/10 13:04:17;;;;;;;6.13;1.93;;;;;;;;;;4895420;28;20512;-66
2023/08/10 13:06:43;;;;;;;1.50;1.50;;;;;;;;;;4894987;29;20497;-67
2023/08/10 13:09:09;;;;;;;2.43;1.60;;;;;;;;;;4893384;28;20481;-67
2023/08/10 13:11:36;;;;;;;2.60;1.27;;;;;;;;;;4895143;28;20430;-67
2023/08/10 13:14:02;;;;;;;1.70;1.70;;;;;;;;;;4894585;28;20437;-67
2023/08/10 13:16:28;;;;;;;1.90;1.90;;;;;;;;;;4895449;28;20519;-67
2023/08/10 13:18:54;;;;;;;1.30;1.30;;;;;;;;;;4895410;29;20469;-67
2023/08/10 13:21:20;;;;;;;1.43;1.43;;;;;;;;;;4895884;28;20972;-69
2023/08/10 13:23:46;;;;;;;1.63;1.53;;;;;;;;;;4895070;28;20484;-61
2023/08/10 13:26:12;;;;;;;1.47;1.47;;;;;;;;;;4894345;28;20430;-67
2023/08/10 13:28:37;;;;;;;1.87;1.87;;;;;;;;;;4894375;28;20418;-67
2023/08/10 13:31:03;;;;;;;1.70;1.70;;;;;;;;;;4895743;28;20838;-67
2023/08/10 13:33:31;;;;;;;1.40;1.40;;;;;;;;;;4895450;29;20803;-67
2023/08/10 13:35:58;;;;;;;1.40;1.40;;;;;;;;;;4895672;28;20432;-67
2023/08/10 13:38:24;;;;;;;1.07;1.07;;;;;;;;;;4895706;29;20422;-67
2023/08/10 13:40:50;;;;;;;1.67;1.67;;;;;;;;;;4895603;28;20433;-67
2023/08/10 13:43:16;;;;;;;2.47;1.30;;;;;;;;;;4895153;29;20457;-67
2023/08/10 13:45:42;;;;;;;10.17;1.67;;;;;;;;;;4895200;28;20458;-67
2023/08/10 13:48:09;;;;;;;1.60;1.60;;;;;;;;;;4895451;28;20414;-67
2023/08/10 13:50:35;;;;;;;1.47;1.47;;;;;;;;;;4894565;28;20489;-67
2023/08/10 13:53:01;;;;;;;1.50;1.50;;;;;;;;;;4895061;28;20417;-67
2023/08/10 13:55:28;;;;;;;2.00;2.00;;;;;;;;;;4895428;29;20496;-67
2023/08/10 13:57:54;;;;;;;1.80;1.80;;;;;;;;;;4895470;29;20449;-67
2023/08/10 14:00:20;;;;;;;2.07;1.97;;;;;;;;;;4894808;28;20914;-67
2023/08/10 14:02:46;;;;;;;2.77;1.70;;;;;;;;;;4894964;29;20418;-67
2023/08/10 14:05:13;;;;;;;1.00;1.00;;;;;;;;;;4895330;28;20430;-67
2023/08/10 14:07:39;;;;;;;1.37;1.37;;;;;;;;;;4895269;28;20504;-67
2023/08/10 14:10:05;;;;;;;1.30;1.20;;;;;;;;;;4895219;28;20528;-67
2023/08/10 14:12:31;;;;;;;1.83;1.73;;;;;;;;;;4894790;29;20426;-67
2023/08/10 14:14:57;;;;;;;2.63;2.53;;;;;;;;;;4894915;28;20440;-67
2023/08/10 14:17:23;;;;;;;1.20;1.20;;;;;;;;;;4895002;28;20470;-67
2023/08/10 14:19:49;;;;;;;1.53;1.53;;;;;;;;;;4895153;29;20438;-67
2023/08/10 14:22:16;;;;;;;1.00;1.00;;;;;;;;;;4894994;28;20430;-67
2023/08/10 14:24:42;;;;;;;4.00;1.87;;;;;;;;;;4894742;28;20484;-67
2023/08/10 14:27:08;;;;;;;1.50;1.50;;;;;;;;;;4895009;28;20460;-67
2023/08/10 14:29:33;;;;;;;1.60;1.47;;;;;;;;;;4894717;29;20481;-67
2023/08/10 14:31:59;;;;;;;1.17;1.17;;;;;;;;;;4895001;28;20917;-67
2023/08/10 14:34:25;;;;;;;1.33;1.23;;;;;;;;;;4894511;29;20761;-67
2023/08/10 14:36:51;;;;;;;6.63;1.70;;;;;;;;;;4894864;29;20417;-67
2023/08/10 14:39:18;;;;;;;1.50;1.50;;;;;;;;;;4893752;28;20445;-67
2023/08/10 14:41:49;;;;;;;1.90;1.80;;;;;;;;;;4894933;29;20434;-67